createdAt,value
2017-02-26T00:05:17.873Z,279.2
2017-02-26T00:16:17.565Z,279
2017-02-26T00:27:18.082Z,278.8
2017-02-26T00:38:18.285Z,278.7
2017-02-26T00:49:18.298Z,278.8
2017-02-26T01:00:19.652Z,277.5
2017-02-26T01:11:18.133Z,278.9
2017-02-26T01:22:18.105Z,279.4
2017-02-26T01:33:17.985Z,279
2017-02-26T01:44:17.731Z,279
2017-02-26T01:55:19.374Z,278.9
2017-02-26T02:06:17.866Z,278.8
2017-02-26T02:17:18.354Z,279.4
2017-02-26T02:28:18.116Z,278.5
2017-02-26T02:39:18.180Z,278.7
2017-02-26T02:50:18.915Z,279.3
2017-02-26T03:01:18.074Z,278.8
2017-02-26T03:12:18.697Z,279.2
2017-02-26T03:23:17.744Z,279.2
2017-02-26T03:34:18.245Z,279.3
2017-02-26T03:45:18.532Z,279.1
2017-02-26T03:56:17.657Z,279.1
2017-02-26T04:07:18.083Z,278.9
2017-02-26T04:18:17.839Z,278.8
2017-02-26T04:29:18.278Z,278.8
2017-02-26T04:40:18.735Z,279.3
2017-02-26T04:51:17.526Z,279.1
2017-02-26T05:02:18.073Z,279.2
2017-02-26T05:13:19.772Z,278.8
2017-02-26T05:24:17.996Z,279.2
2017-02-26T05:35:18.195Z,279.2
2017-02-26T05:46:18.209Z,279
2017-02-26T05:57:18.207Z,279.2
2017-02-26T06:08:18.538Z,279.3
2017-02-26T06:19:17.812Z,279.3
2017-02-26T06:30:22.644Z,279.1
2017-02-26T06:41:17.539Z,279
2017-02-26T06:52:18.187Z,279.1
2017-02-26T07:03:17.998Z,279
2017-02-26T07:14:18.471Z,279.4
2017-02-26T07:25:19.570Z,279.2
2017-02-26T07:36:18.662Z,279.2
2017-02-26T07:47:17.641Z,279
2017-02-26T07:58:17.739Z,278.3
2017-02-26T08:09:18.145Z,278
2017-02-26T08:20:19.506Z,277.8
2017-02-26T08:31:18.377Z,276.6
2017-02-26T08:42:17.672Z,275.9
2017-02-26T08:53:17.672Z,276
2017-02-26T09:04:17.544Z,278.2
2017-02-26T09:15:17.781Z,276
2017-02-26T09:26:17.807Z,277.9
2017-02-26T09:37:17.712Z,278
2017-02-26T09:48:18.679Z,275.2
2017-02-26T09:59:17.839Z,277
2017-02-26T10:10:19.791Z,276.3
2017-02-26T10:21:17.506Z,276.2
2017-02-26T10:32:18.091Z,274.1
2017-02-26T10:43:18.120Z,274.1
2017-02-26T10:54:18.222Z,275.6
2017-02-26T11:05:18.425Z,276
2017-02-26T11:16:18.543Z,276.5
2017-02-26T11:27:18.134Z,276.1
2017-02-26T11:38:18.693Z,276
2017-02-26T11:49:18.040Z,276.6
2017-02-26T12:00:19.530Z,275.4
2017-02-26T12:11:18.020Z,275.8
2017-02-26T12:22:18.407Z,277.4
2017-02-26T12:33:18.310Z,275.8
2017-02-26T12:44:18.092Z,276.7
2017-02-26T12:55:18.255Z,275.9
2017-02-26T13:06:17.887Z,275.9
2017-02-26T13:17:18.759Z,276.6
2017-02-26T13:28:17.957Z,274.6
2017-02-26T13:39:18.832Z,276.2
2017-02-26T13:50:18.313Z,274.8
2017-02-26T14:01:18.145Z,276.4
2017-02-26T14:12:18.387Z,276.1
2017-02-26T14:23:18.280Z,277.6
2017-02-26T14:34:17.709Z,277.5
2017-02-26T14:45:17.846Z,277.3
2017-02-26T14:56:17.845Z,277.3
2017-02-26T15:07:18.363Z,278
2017-02-26T15:18:18.074Z,277.6
2017-02-26T15:29:17.943Z,276.7
2017-02-26T15:40:17.904Z,276.2
2017-02-26T15:51:17.905Z,277.1
2017-02-26T16:02:18.297Z,277
2017-02-26T16:13:18.085Z,275.6
2017-02-26T16:24:18.734Z,277.4
2017-02-26T16:35:17.991Z,277.7
2017-02-26T16:46:17.483Z,278.1
2017-02-26T16:57:18.059Z,276
2017-02-26T17:08:18.278Z,276.6
2017-02-26T17:19:18.652Z,277.7
2017-02-26T17:30:20.114Z,278.4
2017-02-26T17:41:17.486Z,278.3
2017-02-26T17:52:17.943Z,278.1
2017-02-26T18:03:18.335Z,277.6
2017-02-26T18:14:18.371Z,278.8
2017-02-26T18:25:19.433Z,278
2017-02-26T18:36:18.793Z,278.6
2017-02-26T18:47:18.164Z,278.5
2017-02-26T18:58:17.793Z,278.7
2017-02-26T19:09:18.755Z,278.8
2017-02-26T19:20:18.458Z,278.1
2017-02-26T19:31:18.308Z,278.9
2017-02-26T19:42:18.123Z,278.8
2017-02-26T19:53:17.659Z,278.5
2017-02-26T20:04:18.333Z,277
2017-02-26T20:15:19.138Z,278.1
2017-02-26T20:26:18.726Z,278.7
2017-02-26T20:37:18.444Z,278.6
2017-02-26T20:48:18.172Z,278.4
2017-02-26T20:59:17.836Z,278.4
2017-02-26T21:10:18.215Z,277.6
2017-02-26T21:21:18.307Z,276.5
2017-02-26T21:32:18.613Z,275.7
2017-02-26T21:43:18.464Z,276.2
2017-02-26T21:54:18.097Z,277.8
2017-02-26T22:05:17.906Z,277.9
2017-02-26T22:16:17.644Z,277.9
2017-02-26T22:27:17.743Z,278.2
2017-02-26T22:38:17.890Z,276.6
2017-02-26T22:49:17.965Z,278.8
2017-02-26T23:00:18.095Z,278.7
2017-02-26T23:11:18.222Z,279.3
2017-02-26T23:22:17.923Z,279
2017-02-26T23:33:18.179Z,278.6
2017-02-26T23:44:17.512Z,279.2
2017-02-26T23:55:17.630Z,279.2
